Time;durP1;ratioP1;P1;durP2;ratioP2;P2;SDS_P1;SDS_P2;PMS_P1;PMS_P2;Temp;Humidity;BMP_temperature;BMP_pressure;BME280_temperature;BME280_humidity;BME280_pressure;Samples;Min_cycle;Max_cycle;Signal;HPM_P1;HPM_P2
2023/08/26 00:01:32;;;;;;;18.63;15.10;;;19.30;99.90;;;;;;4990219;28;20030;-79
2023/08/26 00:03:58;;;;;;;19.42;14.25;;;19.30;99.90;;;;;;5001625;28;20083;-80
2023/08/26 00:06:24;;;;;;;26.73;18.95;;;19.30;99.90;;;;;;4989247;28;20026;-80
2023/08/26 00:08:52;;;;;;;22.00;16.23;;;19.40;99.90;;;;;;4970883;28;20060;-80
2023/08/26 00:11:18;;;;;;;29.63;22.15;;;19.50;99.90;;;;;;4985396;28;20056;-80
2023/08/26 00:13:44;;;;;;;23.95;17.50;;;19.50;99.90;;;;;;4989359;28;20030;-79
2023/08/26 00:16:12;;;;;;;33.05;22.45;;;19.40;99.90;;;;;;5002099;28;20045;-79
2023/08/26 00:18:38;;;;;;;25.38;18.83;;;19.40;99.90;;;;;;4987385;28;21187;-80
2023/08/26 00:21:03;;;;;;;40.60;28.63;;;19.40;99.90;;;;;;4989028;28;20030;-80
2023/08/26 00:23:31;;;;;;;36.88;25.98;;;19.40;99.90;;;;;;4970094;28;20037;-79
2023/08/26 00:25:57;;;;;;;46.10;33.45;;;19.30;99.90;;;;;;4983387;28;20497;-79
2023/08/26 00:28:22;;;;;;;28.38;18.75;;;19.30;99.90;;;;;;5005485;28;20033;-79
2023/08/26 00:31:00;;;;;;;37.53;26.27;;;19.20;99.90;;;;;;4972544;28;20037;-80
2023/08/26 00:33:28;;;;;;;35.88;28.00;;;19.30;99.90;;;;;;5002583;28;20034;-79
2023/08/26 00:35:54;;;;;;;32.50;23.02;;;19.30;99.90;;;;;;5007211;28;20037;-79
2023/08/26 00:38:19;;;;;;;38.13;26.95;;;19.40;99.90;;;;;;4986723;28;20044;-81
2023/08/26 00:40:45;;;;;;;30.08;20.75;;;19.30;99.90;;;;;;4987920;28;20589;-79
2023/08/26 00:43:11;;;;;;;24.48;18.05;;;19.30;99.90;;;;;;4985002;28;20051;-79
2023/08/26 00:45:41;;;;;;;23.58;18.00;;;19.30;99.90;;;;;;4974536;28;20033;-80
2023/08/26 00:48:10;;;;;;;32.58;24.38;;;19.30;99.90;;;;;;4989524;28;20060;-79
2023/08/26 00:50:37;;;;;;;25.00;17.63;;;19.30;99.90;;;;;;4993075;28;20448;-80
2023/08/26 00:53:03;;;;;;;28.38;20.60;;;19.30;99.90;;;;;;5006448;28;20034;-79
2023/08/26 00:55:28;;;;;;;25.33;20.63;;;19.30;99.90;;;;;;4985644;28;20037;-80
2023/08/26 00:57:55;;;;;;;29.42;21.40;;;19.20;99.90;;;;;;4971505;28;20048;-80
2023/08/26 01:00:21;;;;;;;27.05;20.20;;;19.20;99.90;;;;;;4986371;28;20502;-79
2023/08/26 01:02:47;;;;;;;23.13;16.60;;;19.20;99.90;;;;;;4987021;28;20026;-79
2023/08/26 01:05:12;;;;;;;26.95;20.63;;;19.20;99.90;;;;;;4973096;28;20184;-79
2023/08/26 01:07:38;;;;;;;23.50;16.10;;;19.10;99.90;;;;;;4974071;28;20033;-79
2023/08/26 01:10:04;;;;;;;21.38;15.52;;;19.00;99.90;;;;;;4985667;28;20122;-79
2023/08/26 01:12:58;;;;;;;19.20;13.50;;;19.00;99.90;;;;;;4987002;28;20042;-79
2023/08/26 01:15:23;;;;;;;23.02;17.05;;;19.00;99.90;;;;;;5001339;28;20091;-79
2023/08/26 01:17:49;;;;;;;20.27;12.63;;;19.00;99.90;;;;;;4969402;28;20482;-79
2023/08/26 01:20:15;;;;;;;18.45;11.13;;;19.00;99.90;;;;;;4984837;28;20029;-80
2023/08/26 01:22:41;;;;;;;18.65;13.90;;;18.90;99.90;;;;;;4984252;28;20117;-80
2023/08/26 01:25:07;;;;;;;19.13;13.90;;;18.80;99.90;;;;;;4999026;28;20038;-80
2023/08/26 01:27:33;;;;;;;17.20;12.18;;;18.80;99.90;;;;;;4987230;28;20149;-79
2023/08/26 01:29:58;;;;;;;16.63;12.13;;;18.90;99.90;;;;;;4987997;28;20048;-80
2023/08/26 01:32:30;;;;;;;17.35;12.93;;;19.00;99.90;;;;;;4971309;28;20040;-80
2023/08/26 01:34:57;;;;;;;23.98;13.52;;;18.80;99.90;;;;;;5002593;28;20121;-80
2023/08/26 01:37:23;;;;;;;19.27;13.35;;;18.80;99.90;;;;;;4986738;28;20053;-80
2023/08/26 01:39:49;;;;;;;14.55;11.30;;;18.70;99.90;;;;;;4987932;28;20398;-80
2023/08/26 01:42:17;;;;;;;15.60;11.57;;;18.60;99.90;;;;;;4984294;28;20033;-79
2023/08/26 01:44:42;;;;;;;13.25;10.68;;;18.80;99.90;;;;;;5002321;28;20037;-79
2023/08/26 01:47:08;;;;;;;15.30;11.18;;;18.80;99.90;;;;;;4983839;28;20437;-78
2023/08/26 01:49:33;;;;;;;13.52;9.07;;;18.80;99.90;;;;;;4989605;28;20026;-80
2023/08/26 01:51:59;;;;;;;12.98;9.82;;;18.70;99.90;;;;;;4969723;28;20034;-80
2023/08/26 01:54:24;;;;;;;11.23;8.85;;;18.70;99.90;;;;;;4969273;28;20034;-80
2023/08/26 01:56:50;;;;;;;15.32;10.18;;;18.80;99.90;;;;;;4982491;28;20048;-80
2023/08/26 01:59:15;;;;;;;14.30;9.25;;;18.80;99.90;;;;;;4985670;28;20052;-81
2023/08/26 02:01:42;;;;;;;13.02;9.20;;;18.80;99.90;;;;;;4987291;28;20084;-80
2023/08/26 02:04:07;;;;;;;10.48;8.60;;;19.00;99.90;;;;;;5004613;28;20042;-80
2023/08/26 02:06:33;;;;;;;11.68;8.90;;;18.90;99.90;;;;;;4972335;28;20037;-79
2023/08/26 02:09:00;;;;;;;15.23;10.93;;;18.80;99.90;;;;;;4986276;28;20046;-80
2023/08/26 02:11:25;;;;;;;11.18;8.35;;;18.80;99.90;;;;;;4972100;28;20508;-79
2023/08/26 02:13:51;;;;;;;18.42;12.85;;;18.70;99.90;;;;;;4984332;28;20505;-80
2023/08/26 02:16:16;;;;;;;17.65;9.32;;;18.70;99.90;;;;;;4999150;28;20505;-79
2023/08/26 02:18:42;;;;;;;8.45;5.88;;;18.80;99.90;;;;;;4982155;28;20122;-80
2023/08/26 02:21:08;;;;;;;10.77;7.95;;;18.50;99.90;;;;;;4973449;28;20152;-84
2023/08/26 02:23:34;;;;;;;14.70;8.40;;;18.50;99.90;;;;;;4974613;28;20037;-80
2023/08/26 02:26:00;;;;;;;12.18;7.53;;;18.40;99.90;;;;;;4974785;28;20044;-79
2023/08/26 02:28:26;;;;;;;12.05;6.93;;;18.20;99.90;;;;;;4986963;28;20052;-79
2023/08/26 02:30:52;;;;;;;9.27;5.20;;;18.20;99.90;;;;;;4977930;28;20557;-80
2023/08/26 02:33:17;;;;;;;6.95;4.22;;;18.20;99.90;;;;;;4986582;28;20117;-79
2023/08/26 02:35:46;;;;;;;5.03;3.70;;;18.10;99.90;;;;;;5005207;28;20030;-79
2023/08/26 02:38:12;;;;;;;6.82;3.75;;;18.10;99.90;;;;;;4968567;28;20096;-79
2023/08/26 02:40:39;;;;;;;3.80;2.25;;;18.10;99.90;;;;;;4989192;28;20030;-80
2023/08/26 02:43:05;;;;;;;6.18;1.98;;;17.90;99.90;;;;;;5003564;28;20088;-80
2023/08/26 02:45:31;;;;;;;5.88;1.77;;;17.70;99.90;;;;;;4987590;28;20033;-79
2023/08/26 02:47:57;;;;;;;5.55;1.90;;;17.60;99.90;;;;;;4987859;28;20041;-79
2023/08/26 02:50:24;;;;;;;1.67;1.00;;;17.50;99.90;;;;;;4974370;28;20049;-79
2023/08/26 02:52:50;;;;;;;7.32;1.73;;;17.50;99.90;;;;;;4990614;28;20033;-79
2023/08/26 02:55:16;;;;;;;4.80;1.50;;;17.30;99.90;;;;;;4971482;28;20594;-79
2023/08/26 02:57:42;;;;;;;2.95;1.23;;;17.50;99.90;;;;;;4985109;28;20037;-80
2023/08/26 03:00:09;;;;;;;4.85;1.58;;;17.30;99.90;;;;;;4974594;28;20112;-81
2023/08/26 03:02:35;;;;;;;3.38;1.85;;;17.10;99.90;;;;;;4989442;28;20389;-79
2023/08/26 03:05:00;;;;;;;3.08;1.40;;;17.00;99.90;;;;;;4963441;28;20030;-78
2023/08/26 03:07:26;;;;;;;7.95;2.08;;;17.00;99.90;;;;;;4989691;28;20563;-79
2023/08/26 03:09:52;;;;;;;5.35;1.73;;;17.10;99.90;;;;;;4988198;28;20394;-79
2023/08/26 03:12:17;;;;;;;4.22;1.58;;;17.00;99.90;;;;;;4972566;28;20026;-79
2023/08/26 03:14:43;;;;;;;4.93;2.25;;;17.00;99.90;;;;;;4990970;28;20397;-79
2023/08/26 03:17:09;;;;;;;5.10;1.80;;;16.90;99.90;;;;;;4987668;28;20026;-79
2023/08/26 03:19:34;;;;;;;7.95;2.03;;;16.70;99.90;;;;;;4989817;28;20029;-78
2023/08/26 03:22:00;;;;;;;5.03;1.63;;;16.60;99.90;;;;;;4972837;28;20042;-79
2023/08/26 03:24:26;;;;;;;3.25;1.40;;;16.60;99.90;;;;;;4980686;28;20124;-80
2023/08/26 03:26:51;;;;;;;4.82;1.85;;;16.70;99.90;;;;;;4987701;28;20033;-78
2023/08/26 03:29:17;;;;;;;5.03;1.55;;;16.60;99.90;;;;;;4986669;28;20034;-79
2023/08/26 03:31:51;;;;;;;6.80;1.25;;;16.60;99.90;;;;;;4997980;28;20025;-80
2023/08/26 03:34:16;;;;;;;3.00;1.55;;;16.50;99.90;;;;;;4973544;28;20025;-78
2023/08/26 03:36:42;;;;;;;7.93;2.65;;;16.30;99.90;;;;;;4983658;28;20093;-79
2023/08/26 03:39:08;;;;;;;7.13;1.58;;;16.50;99.90;;;;;;4991107;28;20022;-78
2023/08/26 03:41:33;;;;;;;4.22;1.90;;;16.40;99.90;;;;;;4987410;28;20033;-77
2023/08/26 03:43:59;;;;;;;3.03;1.60;;;16.30;99.90;;;;;;4982956;28;20055;-76
2023/08/26 03:46:26;;;;;;;3.17;1.15;;;16.30;99.90;;;;;;4998735;28;20120;-77
2023/08/26 03:48:52;;;;;;;3.25;1.70;;;16.30;99.90;;;;;;4988891;28;20045;-77
2023/08/26 03:51:18;;;;;;;4.20;1.40;;;16.20;99.90;;;;;;4989090;28;20064;-78
2023/08/26 03:53:43;;;;;;;2.13;1.55;;;16.20;99.90;;;;;;4970365;28;20394;-79
2023/08/26 03:56:09;;;;;;;3.60;1.50;;;16.20;99.90;;;;;;4988126;28;20065;-78
2023/08/26 03:58:34;;;;;;;2.38;1.27;;;16.00;99.90;;;;;;5001191;28;20613;-78
2023/08/26 04:01:01;;;;;;;4.03;1.30;;;16.00;99.90;;;;;;4973793;28;20064;-78
2023/08/26 04:03:27;;;;;;;4.13;1.30;;;16.00;99.90;;;;;;4968747;28;20026;-77
2023/08/26 04:06:00;;;;;;;3.10;1.85;;;16.00;99.90;;;;;;5003666;28;20037;-78
2023/08/26 04:08:26;;;;;;;3.42;1.33;;;16.00;99.90;;;;;;5005278;28;20038;-78
2023/08/26 04:10:58;;;;;;;4.97;1.38;;;15.90;99.90;;;;;;4989334;28;20038;-78
2023/08/26 04:13:25;;;;;;;2.53;1.70;;;15.90;99.90;;;;;;4999915;28;20026;-78
2023/08/26 04:15:55;;;;;;;3.38;1.27;;;15.90;99.90;;;;;;4972017;28;20063;-79
2023/08/26 04:18:22;;;;;;;4.78;1.42;;;15.80;99.90;;;;;;4989254;28;20124;-79
2023/08/26 04:20:47;;;;;;;2.15;1.40;;;15.90;99.90;;;;;;4986334;28;20036;-78
2023/08/26 04:23:13;;;;;;;3.40;1.67;;;15.70;99.90;;;;;;4969643;28;20386;-78
2023/08/26 04:25:40;;;;;;;5.38;1.27;;;15.80;99.90;;;;;;4969186;28;20501;-77
2023/08/26 04:28:05;;;;;;;3.38;1.73;;;15.80;99.90;;;;;;4982166;28;20057;-78
2023/08/26 04:30:31;;;;;;;1.75;1.27;;;15.70;99.90;;;;;;4986695;28;20587;-78
2023/08/26 04:32:57;;;;;;;7.82;2.13;;;15.60;99.90;;;;;;5001030;28;20041;-78
2023/08/26 04:35:23;;;;;;;3.75;1.83;;;15.50;99.90;;;;;;5004627;28;20037;-78
2023/08/26 04:37:48;;;;;;;5.50;1.70;;;15.30;99.90;;;;;;4988320;28;20034;-78
2023/08/26 04:40:14;;;;;;;4.32;1.60;;;15.10;99.90;;;;;;4975964;28;23227;-77
2023/08/26 04:42:40;;;;;;;4.90;2.08;;;15.10;99.90;;;;;;4967316;28;20048;-78
2023/08/26 04:45:06;;;;;;;4.18;1.60;;;15.00;99.90;;;;;;4983029;28;20481;-78
2023/08/26 04:47:31;;;;;;;2.80;1.42;;;15.00;99.90;;;;;;4988894;28;20172;-77
2023/08/26 04:49:58;;;;;;;2.97;1.60;;;15.00;99.90;;;;;;4970872;28;20717;-77
2023/08/26 04:52:24;;;;;;;3.97;1.70;;;15.20;99.90;;;;;;4987271;28;20037;-78
2023/08/26 04:54:50;;;;;;;5.57;1.73;;;15.00;99.90;;;;;;4971576;28;20634;-78
2023/08/26 04:57:16;;;;;;;7.75;2.22;;;15.00;99.90;;;;;;4972155;28;20129;-78
2023/08/26 04:59:42;;;;;;;5.22;1.70;;;15.00;99.90;;;;;;4981130;28;20052;-78
2023/08/26 05:02:08;;;;;;;4.78;1.77;;;15.00;99.90;;;;;;4985776;28;20834;-78
2023/08/26 05:04:34;;;;;;;3.40;1.63;;;15.00;99.90;;;;;;4981880;28;20029;-77
2023/08/26 05:06:59;;;;;;;4.20;1.90;;;15.00;99.90;;;;;;4969983;28;20160;-78
2023/08/26 05:09:25;;;;;;;6.35;2.10;;;15.00;99.90;;;;;;4983480;28;20108;-78
2023/08/26 05:11:50;;;;;;;4.43;1.35;;;15.10;99.90;;;;;;4972069;28;20201;-78
2023/08/26 05:14:16;;;;;;;2.55;1.42;;;15.10;99.90;;;;;;4986480;28;20509;-78
2023/08/26 05:16:42;;;;;;;4.35;1.90;;;15.10;99.90;;;;;;4990517;28;20072;-78
2023/08/26 05:19:08;;;;;;;7.80;2.20;;;15.10;99.90;;;;;;4998544;28;20032;-77
2023/08/26 05:21:33;;;;;;;8.77;3.22;;;15.20;99.90;;;;;;4984091;28;20057;-79
2023/08/26 05:24:03;;;;;;;8.15;2.15;;;15.00;99.90;;;;;;4973232;28;20139;-77
2023/08/26 05:26:29;;;;;;;6.97;1.98;;;15.00;99.90;;;;;;4966971;28;20036;-78
2023/08/26 05:28:54;;;;;;;3.53;1.73;;;15.00;99.90;;;;;;4986045;28;20405;-78
2023/08/26 05:31:20;;;;;;;4.65;2.10;;;15.10;99.90;;;;;;4986816;28;20413;-78
2023/08/26 05:33:45;;;;;;;7.07;1.73;;;15.10;99.90;;;;;;4971234;28;20034;-78
2023/08/26 05:36:11;;;;;;;7.05;1.92;;;15.20;99.90;;;;;;4984654;28;20026;-78
2023/08/26 05:38:36;;;;;;;8.45;2.10;;;15.20;99.90;;;;;;4984946;28;20104;-78
2023/08/26 05:41:02;;;;;;;4.00;2.45;;;15.20;99.90;;;;;;4986347;28;20083;-78
2023/08/26 05:43:29;;;;;;;8.40;2.50;;;15.20;99.90;;;;;;4981260;28;20061;-79
2023/08/26 05:45:56;;;;;;;3.83;1.40;;;15.30;99.90;;;;;;4638032;28;9999808;-79
2023/08/26 05:48:22;;;;;;;6.63;2.45;;;15.40;99.90;;;;;;4968663;28;20060;-80
2023/08/26 05:50:47;;;;;;;7.57;2.20;;;15.40;99.90;;;;;;4974178;28;20644;-79
2023/08/26 05:53:13;;;;;;;3.28;1.85;;;15.50;99.90;;;;;;5019209;28;20033;-79
2023/08/26 05:55:41;;;;;;;6.30;1.77;;;15.40;99.90;;;;;;4986779;28;20045;-79
2023/08/26 05:58:06;;;;;;;5.30;1.73;;;15.50;99.90;;;;;;4971197;28;20417;-79
2023/08/26 06:00:32;;;;;;;7.70;1.88;;;15.50;99.90;;;;;;4975066;28;20032;-79
2023/08/26 06:02:57;;;;;;;3.03;1.67;;;15.60;99.90;;;;;;4974186;28;20022;-79
2023/08/26 06:05:23;;;;;;;5.57;1.80;;;15.70;99.90;;;;;;5022754;28;20048;-79
2023/08/26 06:07:51;;;;;;;6.53;2.45;;;15.70;99.90;;;;;;5006704;28;20068;-79
2023/08/26 06:10:17;;;;;;;5.38;1.35;;;15.80;99.90;;;;;;5005692;28;20109;-79
2023/08/26 06:12:43;;;;;;;6.57;1.80;;;15.80;99.90;;;;;;4985743;28;20109;-79
2023/08/26 06:15:08;;;;;;;3.60;2.10;;;15.90;99.90;;;;;;4990576;28;20397;-79
2023/08/26 06:17:35;;;;;;;3.65;1.23;;;16.00;99.90;;;;;;4986237;28;20405;-78
2023/08/26 06:20:05;;;;;;;3.70;1.65;;;16.00;99.90;;;;;;4988093;28;20026;-79
2023/08/26 06:22:31;;;;;;;5.13;1.75;;;16.10;99.90;;;;;;4991065;28;20040;-80
2023/08/26 06:24:56;;;;;;;7.10;1.80;;;16.20;99.90;;;;;;4971177;28;20457;-78
2023/08/26 06:27:23;;;;;;;2.38;1.45;;;16.30;99.90;;;;;;4973548;28;20084;-79
2023/08/26 06:29:55;;;;;;;4.25;1.58;;;16.30;99.90;;;;;;4976121;28;20113;-77
2023/08/26 06:32:21;;;;;;;3.85;1.58;;;16.40;99.90;;;;;;4973416;28;20034;-78
2023/08/26 06:34:46;;;;;;;4.43;1.52;;;16.40;99.90;;;;;;4974021;28;20390;-77
2023/08/26 06:37:13;;;;;;;7.65;1.50;;;16.50;99.90;;;;;;4987374;28;20033;-79
2023/08/26 06:39:38;;;;;;;5.28;1.40;;;16.50;99.90;;;;;;5016692;28;20045;-78
2023/08/26 06:42:04;;;;;;;3.92;1.13;;;16.60;99.90;;;;;;4998626;28;20103;-79
2023/08/26 06:44:30;;;;;;;3.15;1.02;;;16.70;99.90;;;;;;4988858;28;20041;-79
2023/08/26 06:46:56;;;;;;;4.78;1.60;;;16.80;99.90;;;;;;4986209;28;20060;-78
2023/08/26 06:49:21;;;;;;;3.35;1.40;;;16.70;99.90;;;;;;5004714;28;20096;-77
2023/08/26 06:51:47;;;;;;;2.22;1.02;;;16.90;99.90;;;;;;4997259;28;20033;-78
2023/08/26 06:54:12;;;;;;;4.63;1.63;;;16.90;99.90;;;;;;4982236;28;20119;-78
2023/08/26 06:56:38;;;;;;;4.13;1.45;;;17.00;99.90;;;;;;4989211;28;20117;-77
2023/08/26 06:59:03;;;;;;;2.05;1.00;;;17.10;99.90;;;;;;5000058;28;20029;-78
2023/08/26 07:01:31;;;;;;;6.50;1.65;;;17.20;99.90;;;;;;4970269;28;20033;-78
2023/08/26 07:04:04;;;;;;;2.97;1.02;;;17.30;99.90;;;;;;5004499;28;20057;-78
2023/08/26 07:06:30;;;;;;;1.30;0.70;;;17.30;99.90;;;;;;5002632;28;20095;-78
2023/08/26 07:08:56;;;;;;;1.27;0.80;;;17.50;99.90;;;;;;4999804;28;20033;-78
2023/08/26 07:11:21;;;;;;;4.53;1.20;;;17.50;99.90;;;;;;4969419;28;20030;-78
2023/08/26 07:13:47;;;;;;;3.50;1.10;;;17.60;99.90;;;;;;5003837;28;20053;-78
2023/08/26 07:16:12;;;;;;;2.03;1.02;;;17.70;99.90;;;;;;4986187;28;20065;-78
2023/08/26 07:18:38;;;;;;;1.08;0.50;;;17.80;99.90;;;;;;4982611;28;20038;-77
2023/08/26 07:21:04;;;;;;;3.97;1.05;;;17.80;99.90;;;;;;4987840;28;20124;-76
2023/08/26 07:23:29;;;;;;;2.85;1.10;;;17.90;99.90;;;;;;5004438;28;20046;-77
2023/08/26 07:25:55;;;;;;;3.25;1.20;;;18.00;99.90;;;;;;5006504;28;20363;-77
2023/08/26 07:28:20;;;;;;;2.88;1.20;;;18.10;99.90;;;;;;4970758;28;20029;-77
2023/08/26 07:30:46;;;;;;;3.58;1.30;;;18.20;99.90;;;;;;4982827;28;20033;-77
2023/08/26 07:33:11;;;;;;;3.05;0.98;;;18.30;99.90;;;;;;4981209;28;20060;-77
2023/08/26 07:35:37;;;;;;;1.38;0.65;;;18.40;99.90;;;;;;5002715;28;20034;-77
2023/08/26 07:38:02;;;;;;;1.63;0.70;;;18.50;99.90;;;;;;5002236;28;20038;-77
2023/08/26 07:40:29;;;;;;;3.17;0.85;;;18.50;99.90;;;;;;5002347;28;20116;-77
2023/08/26 07:42:55;;;;;;;5.43;1.10;;;18.70;99.90;;;;;;4987061;28;20034;-76
2023/08/26 07:45:21;;;;;;;1.50;0.90;;;18.80;99.90;;;;;;4999928;28;20030;-77
2023/08/26 07:47:46;;;;;;;4.75;1.27;;;18.90;99.90;;;;;;4983512;28;20501;-76
2023/08/26 07:50:12;;;;;;;1.20;0.80;;;18.80;99.90;;;;;;4985593;28;20041;-76
2023/08/26 07:52:38;;;;;;;3.22;1.10;;;19.10;99.90;;;;;;4968619;28;20071;-76
2023/08/26 07:55:04;;;;;;;2.63;0.95;;;19.30;99.90;;;;;;4982646;28;20071;-76
2023/08/26 07:57:29;;;;;;;5.63;1.17;;;19.20;99.90;;;;;;4984717;28;20033;-77
2023/08/26 07:59:55;;;;;;;3.63;0.95;;;19.30;99.90;;;;;;4984399;28;20021;-76
2023/08/26 08:02:21;;;;;;;2.92;1.20;;;19.40;99.00;;;;;;4999534;28;20039;-76
2023/08/26 08:04:46;;;;;;;1.10;0.68;;;19.50;99.00;;;;;;4969104;28;20048;-76
2023/08/26 08:07:12;;;;;;;3.47;1.15;;;19.60;99.20;;;;;;4986003;28;20128;-77
2023/08/26 08:09:39;;;;;;;2.63;1.45;;;19.70;99.20;;;;;;4969894;28;20021;-76
2023/08/26 08:12:05;;;;;;;0.68;0.60;;;19.60;98.50;;;;;;4984847;28;20563;-77
2023/08/26 08:14:30;;;;;;;3.17;0.98;;;19.60;97.60;;;;;;4987121;28;20026;-76
2023/08/26 08:16:56;;;;;;;2.65;0.80;;;19.80;97.90;;;;;;4985405;28;20099;-77
2023/08/26 08:19:23;;;;;;;5.32;1.00;;;19.80;97.10;;;;;;4920644;28;20042;-77
2023/08/26 08:21:48;;;;;;;2.72;0.85;;;19.90;97.20;;;;;;4967570;28;20109;-76
2023/08/26 08:24:14;;;;;;;4.05;0.90;;;19.90;97.50;;;;;;4986368;28;20112;-76
2023/08/26 08:26:43;;;;;;;4.50;0.73;;;19.90;97.10;;;;;;4968715;28;20128;-80
2023/08/26 08:29:10;;;;;;;2.17;0.70;;;20.00;98.20;;;;;;4970858;28;20415;-80
2023/08/26 08:31:36;;;;;;;2.05;0.70;;;19.90;97.10;;;;;;4987647;28;20140;-80
2023/08/26 08:34:03;;;;;;;3.25;0.93;;;20.00;97.30;;;;;;4987152;28;20044;-80
2023/08/26 08:36:29;;;;;;;3.45;0.93;;;20.20;97.30;;;;;;4985315;28;20033;-80
2023/08/26 08:38:54;;;;;;;4.80;1.30;;;20.40;96.50;;;;;;5000425;28;20030;-80
2023/08/26 08:41:20;;;;;;;2.40;0.90;;;20.50;96.70;;;;;;4983758;28;20383;-80
2023/08/26 08:43:46;;;;;;;15.18;1.55;;;20.60;95.70;;;;;;4984635;28;20030;-80
2023/08/26 08:46:13;;;;;;;2.50;0.90;;;20.70;95.90;;;;;;4969686;28;20038;-80
2023/08/26 08:48:39;;;;;;;2.67;1.55;;;20.70;96.60;;;;;;4986094;28;20044;-80
2023/08/26 08:51:04;;;;;;;3.80;1.00;;;20.90;95.60;;;;;;5002315;28;20041;-79
2023/08/26 08:53:30;;;;;;;1.48;0.65;;;21.00;96.30;;;;;;4985239;28;20029;-80
2023/08/26 08:55:56;;;;;;;3.97;0.88;;;20.90;95.10;;;;;;4985534;28;20096;-80
2023/08/26 08:58:22;;;;;;;4.97;0.90;;;20.90;95.10;;;;;;4967973;28;20038;-79
2023/08/26 09:00:47;;;;;;;2.35;0.90;;;20.90;95.30;;;;;;4986916;28;20037;-80
2023/08/26 09:03:13;;;;;;;2.70;0.88;;;21.00;95.20;;;;;;4959372;28;20037;-79
2023/08/26 09:05:41;;;;;;;0.70;0.57;;;21.00;95.20;;;;;;4963954;28;20037;-78
2023/08/26 09:08:07;;;;;;;3.33;0.93;;;21.00;95.00;;;;;;4971631;28;20036;-80
2023/08/26 09:10:32;;;;;;;2.88;1.00;;;21.10;95.00;;;;;;4984286;28;20561;-78
2023/08/26 09:12:59;;;;;;;1.80;0.80;;;21.10;94.50;;;;;;4976586;28;20048;-80
2023/08/26 09:15:26;;;;;;;4.90;0.90;;;21.10;94.00;;;;;;4984026;28;20505;-80
2023/08/26 09:17:56;;;;;;;4.45;0.88;;;21.10;94.40;;;;;;4952572;28;20026;-80
2023/08/26 09:20:22;;;;;;;3.65;0.88;;;21.10;95.30;;;;;;4956502;28;20042;-80
2023/08/26 09:22:48;;;;;;;2.95;0.75;;;21.10;95.10;;;;;;5002776;28;20077;-80
2023/08/26 09:25:13;;;;;;;2.50;0.60;;;21.10;94.60;;;;;;4973059;28;20026;-80
2023/08/26 09:27:45;;;;;;;1.65;0.80;;;21.10;94.40;;;;;;4970185;28;20121;-80
2023/08/26 09:30:12;;;;;;;1.33;0.80;;;21.20;94.50;;;;;;4988925;28;20501;-80
2023/08/26 09:32:40;;;;;;;4.82;0.80;;;21.30;94.50;;;;;;4974965;28;20091;-80
2023/08/26 09:35:12;;;;;;;2.15;0.80;;;21.30;95.00;;;;;;4986809;28;20026;-79
2023/08/26 09:37:39;;;;;;;3.33;1.08;;;21.30;95.80;;;;;;4985316;28;20018;-80
2023/08/26 09:40:06;;;;;;;2.05;0.90;;;21.60;94.70;;;;;;4985932;28;20053;-79
2023/08/26 09:42:32;;;;;;;2.25;1.30;;;21.90;94.20;;;;;;4984517;28;20033;-80
2023/08/26 09:44:58;;;;;;;4.05;0.90;;;21.90;94.70;;;;;;4999824;28;20505;-79
2023/08/26 09:47:32;;;;;;;0.60;0.40;;;22.10;92.80;;;;;;5003186;28;20041;-80
2023/08/26 09:49:58;;;;;;;4.45;1.10;;;22.30;92.90;;;;;;4964141;28;20718;-80
2023/08/26 09:52:24;;;;;;;1.98;1.05;;;22.40;93.40;;;;;;4986071;28;20041;-80
2023/08/26 09:54:49;;;;;;;3.70;1.10;;;22.50;93.80;;;;;;4971299;28;20124;-80
2023/08/26 09:57:15;;;;;;;1.35;0.77;;;22.60;93.90;;;;;;5003336;28;20409;-79
2023/08/26 09:59:41;;;;;;;0.55;0.47;;;22.70;92.90;;;;;;4966947;28;20038;-80
2023/08/26 10:02:15;;;;;;;1.17;0.63;;;22.90;92.20;;;;;;4969633;28;20030;-80
2023/08/26 10:04:41;;;;;;;2.75;0.70;;;22.90;92.20;;;;;;4988487;28;20033;-80
2023/08/26 10:07:07;;;;;;;2.20;0.90;;;22.90;91.30;;;;;;4998008;28;20452;-79
2023/08/26 10:09:41;;;;;;;11.88;1.25;;;23.10;91.20;;;;;;4970524;28;20049;-80
2023/08/26 10:12:10;;;;;;;2.90;0.95;;;23.30;91.20;;;;;;5015310;28;20486;-80
2023/08/26 10:14:36;;;;;;;6.28;1.20;;;23.40;90.30;;;;;;4976672;28;20030;-80
2023/08/26 10:17:02;;;;;;;3.17;1.15;;;23.40;90.40;;;;;;4969931;28;20030;-80
2023/08/26 10:19:28;;;;;;;4.35;1.02;;;23.50;91.20;;;;;;4971598;28;20033;-80
2023/08/26 10:21:54;;;;;;;1.15;0.68;;;23.70;90.40;;;;;;4985103;28;20401;-80
2023/08/26 10:24:20;;;;;;;1.35;0.65;;;23.80;89.50;;;;;;4970566;28;20042;-80
2023/08/26 10:26:46;;;;;;;3.03;0.60;;;23.90;91.40;;;;;;4971201;28;20504;-80
2023/08/26 10:29:11;;;;;;;1.23;0.70;;;23.70;91.40;;;;;;4998683;28;20091;-80
2023/08/26 10:31:42;;;;;;;0.88;0.68;;;23.90;90.30;;;;;;4998679;28;20533;-80
2023/08/26 10:34:08;;;;;;;1.80;0.88;;;23.80;90.20;;;;;;4981655;28;20112;-80
2023/08/26 10:36:37;;;;;;;1.70;0.60;;;23.90;90.60;;;;;;5005962;28;20517;-80
2023/08/26 10:39:11;;;;;;;3.63;0.70;;;23.90;90.50;;;;;;4988996;28;20030;-80
2023/08/26 10:41:36;;;;;;;2.35;0.73;;;24.10;90.60;;;;;;4973916;28;20029;-80
2023/08/26 10:44:03;;;;;;;3.88;0.60;;;24.30;89.60;;;;;;4972056;28;20501;-81
2023/08/26 10:46:32;;;;;;;1.25;0.50;;;24.80;89.20;;;;;;4999852;28;20722;-80
2023/08/26 10:48:59;;;;;;;0.98;0.60;;;24.70;86.10;;;;;;4984796;28;20522;-80
2023/08/26 10:51:25;;;;;;;1.98;0.75;;;24.60;88.00;;;;;;4974619;28;20474;-80
2023/08/26 10:53:51;;;;;;;2.47;1.10;;;24.60;89.10;;;;;;4973592;28;20030;-79
2023/08/26 10:56:18;;;;;;;2.47;0.68;;;24.60;90.30;;;;;;5002415;28;20087;-80
2023/08/26 10:58:46;;;;;;;1.30;0.68;;;24.50;91.40;;;;;;5003197;28;20513;-80
2023/08/26 11:01:12;;;;;;;2.20;0.60;;;24.80;90.00;;;;;;4990671;28;20045;-80
2023/08/26 11:03:38;;;;;;;3.10;0.70;;;25.00;88.90;;;;;;5004015;28;20033;-80
2023/08/26 11:06:10;;;;;;;0.45;0.45;;;24.80;90.40;;;;;;4968690;28;20093;-80
2023/08/26 11:08:38;;;;;;;0.80;0.40;;;24.80;90.60;;;;;;4987963;28;20033;-80
2023/08/26 11:11:04;;;;;;;0.75;0.50;;;25.00;90.70;;;;;;4989915;28;20036;-80
2023/08/26 11:13:30;;;;;;;2.58;0.60;;;24.90;90.80;;;;;;4984952;28;20053;-79
2023/08/26 11:15:55;;;;;;;0.95;0.50;;;24.90;90.00;;;;;;4985797;28;20080;-80
2023/08/26 11:18:21;;;;;;;1.13;0.40;;;25.10;88.90;;;;;;4986090;28;20056;-81
2023/08/26 11:20:47;;;;;;;2.47;0.70;;;25.20;90.40;;;;;;4985087;28;20119;-80
2023/08/26 11:23:12;;;;;;;1.67;0.68;;;25.40;87.10;;;;;;5004873;28;20029;-81
2023/08/26 11:25:41;;;;;;;2.10;0.40;;;25.40;86.20;;;;;;5003750;28;20042;-80
2023/08/26 11:28:08;;;;;;;1.65;0.65;;;25.50;86.40;;;;;;4987736;28;20042;-79
2023/08/26 11:30:38;;;;;;;1.48;0.60;;;25.30;90.80;;;;;;4987627;28;20065;-79
2023/08/26 11:33:11;;;;;;;1.25;0.50;;;25.30;88.40;;;;;;4972912;28;20037;-79
2023/08/26 11:35:40;;;;;;;0.80;0.50;;;25.40;88.00;;;;;;4973199;28;20170;-79
2023/08/26 11:38:07;;;;;;;2.38;0.60;;;25.50;87.20;;;;;;5009593;28;20036;-79
2023/08/26 11:40:33;;;;;;;1.70;0.60;;;25.50;86.50;;;;;;5000903;28;22150;-79
2023/08/26 11:42:58;;;;;;;1.67;0.40;;;25.50;88.80;;;;;;4983647;28;20049;-78
2023/08/26 11:45:25;;;;;;;3.47;1.15;;;25.40;87.30;;;;;;4986699;28;20030;-79
2023/08/26 11:47:52;;;;;;;2.83;0.50;;;25.60;85.50;;;;;;4985935;28;20175;-79
2023/08/26 11:50:18;;;;;;;1.20;0.50;;;25.80;84.70;;;;;;5000422;28;20038;-79
2023/08/26 11:52:44;;;;;;;1.38;0.45;;;26.00;83.70;;;;;;4980649;28;20056;-80
2023/08/26 11:55:09;;;;;;;1.20;0.65;;;26.10;84.30;;;;;;5010688;28;20500;-78
2023/08/26 11:57:37;;;;;;;0.55;0.40;;;25.90;84.40;;;;;;5002751;28;20022;-78
2023/08/26 12:00:09;;;;;;;1.90;0.45;;;26.10;82.30;;;;;;4993627;28;20031;-78
2023/08/26 12:02:35;;;;;;;2.83;0.52;;;26.00;82.20;;;;;;5006295;28;20033;-78
2023/08/26 12:05:00;;;;;;;1.20;0.70;;;25.90;82.70;;;;;;5004701;28;20030;-78
2023/08/26 12:07:26;;;;;;;2.05;0.82;;;25.80;84.00;;;;;;4982950;28;20030;-79
2023/08/26 12:09:52;;;;;;;2.38;0.88;;;25.70;83.10;;;;;;4988106;28;20366;-78
2023/08/26 12:12:21;;;;;;;1.05;0.40;;;26.00;82.60;;;;;;4982106;28;20385;-78
2023/08/26 12:14:46;;;;;;;0.85;0.50;;;26.00;80.90;;;;;;4985271;28;20128;-80
2023/08/26 12:17:12;;;;;;;2.72;0.70;;;26.40;81.30;;;;;;4988773;28;20128;-78
2023/08/26 12:19:39;;;;;;;0.93;0.50;;;26.40;82.20;;;;;;5004281;28;20059;-77
2023/08/26 12:22:05;;;;;;;1.98;0.60;;;26.30;81.00;;;;;;4971354;28;20572;-78
2023/08/26 12:24:30;;;;;;;1.52;0.50;;;26.00;84.40;;;;;;4985103;28;20057;-79
2023/08/26 12:27:07;;;;;;;4.32;0.60;;;25.90;84.80;;;;;;4986194;28;20076;-79
2023/08/26 12:29:33;;;;;;;2.42;0.80;;;26.00;86.40;;;;;;4986153;28;20449;-77
2023/08/26 12:31:59;;;;;;;1.05;0.68;;;26.60;82.80;;;;;;4998545;28;20077;-77
2023/08/26 12:34:25;;;;;;;2.10;0.55;;;26.70;83.70;;;;;;4968858;28;20057;-78
2023/08/26 12:36:51;;;;;;;0.30;0.30;;;26.70;81.50;;;;;;4963786;28;20092;-78
2023/08/26 12:39:16;;;;;;;1.33;0.50;;;26.80;79.00;;;;;;4986036;28;20041;-78